createdAt,value
2019-03-02T00:00:46.342Z,4.00
2019-03-02T00:01:48.746Z,4.00
2019-03-02T00:02:46.354Z,4.00
2019-03-02T00:03:46.360Z,4.00
2019-03-02T00:04:49.261Z,4.00
2019-03-02T00:05:46.381Z,4.00
2019-03-02T00:06:46.393Z,4.00
2019-03-02T00:07:47.753Z,4.00
2019-03-02T00:08:46.422Z,4.00
2019-03-02T00:09:46.426Z,4.00
2019-03-02T00:10:46.433Z,4.00
2019-03-02T00:11:46.447Z,4.00
2019-03-02T00:12:46.457Z,4.00
2019-03-02T00:13:46.472Z,4.00
2019-03-02T00:14:46.488Z,4.00
2019-03-02T00:15:46.493Z,4.00
2019-03-02T00:16:46.503Z,4.00
2019-03-02T00:17:46.514Z,4.00
2019-03-02T00:18:46.523Z,4.00
2019-03-02T00:19:46.538Z,4.00
2019-03-02T00:20:50.327Z,4.00
2019-03-02T00:21:46.563Z,4.00
2019-03-02T00:22:46.575Z,4.00
2019-03-02T00:23:46.583Z,4.00
2019-03-02T00:24:46.591Z,4.00
2019-03-02T00:25:46.601Z,4.00
2019-03-02T00:26:46.956Z,4.00
2019-03-02T00:27:46.622Z,4.00
2019-03-02T00:28:46.635Z,4.00
2019-03-02T00:29:46.849Z,4.00
2019-03-02T00:30:46.656Z,4.00
2019-03-02T00:31:46.679Z,4.00
2019-03-02T00:32:46.685Z,4.00
2019-03-02T00:33:46.692Z,4.00
2019-03-02T00:34:46.709Z,4.00
2019-03-02T00:35:46.711Z,4.00
2019-03-02T00:36:46.731Z,4.00
2019-03-02T00:37:46.740Z,4.00
2019-03-02T00:38:46.747Z,4.00
2019-03-02T00:39:46.771Z,4.00
2019-03-02T00:40:46.767Z,4.00
2019-03-02T00:41:46.781Z,4.00
2019-03-02T00:42:48.768Z,4.00
2019-03-02T00:43:46.799Z,4.00
2019-03-02T00:44:46.811Z,4.00
2019-03-02T00:45:48.889Z,4.00
2019-03-02T00:46:46.832Z,4.00
2019-03-02T00:47:46.842Z,4.00
2019-03-02T00:48:47.156Z,4.00
2019-03-02T00:49:46.868Z,4.00
2019-03-02T00:50:46.876Z,4.00
2019-03-02T00:51:47.405Z,4.00
2019-03-02T00:52:46.899Z,4.00
2019-03-02T00:53:46.915Z,4.00
2019-03-02T00:54:57.795Z,4.00
2019-03-02T00:55:46.930Z,4.00
2019-03-02T00:56:46.944Z,4.00
2019-03-02T00:57:46.953Z,4.00
2019-03-02T00:58:46.965Z,4.00
2019-03-02T00:59:46.979Z,4.00
2019-03-02T01:00:50.019Z,4.00
2019-03-02T01:01:46.997Z,4.00
2019-03-02T01:02:47.031Z,4.00
2019-03-02T01:03:47.765Z,4.00
2019-03-02T01:04:47.029Z,4.00
2019-03-02T01:05:47.046Z,4.00
2019-03-02T01:06:48.855Z,4.00
2019-03-02T01:07:47.065Z,4.00
2019-03-02T01:08:47.075Z,4.00
2019-03-02T01:09:47.374Z,4.00
2019-03-02T01:10:47.097Z,4.00
2019-03-02T01:11:47.204Z,4.00
2019-03-02T01:12:47.122Z,4.00
2019-03-02T01:13:47.131Z,4.00
2019-03-02T01:14:47.139Z,4.00
2019-03-02T01:15:47.151Z,4.00
2019-03-02T01:16:47.169Z,4.00
2019-03-02T01:17:47.172Z,4.00
2019-03-02T01:18:47.185Z,4.00
2019-03-02T01:19:49.024Z,4.00
2019-03-02T01:20:47.223Z,4.00
2019-03-02T01:21:47.218Z,4.00
2019-03-02T01:22:48.361Z,4.00
2019-03-02T01:23:47.240Z,4.00
2019-03-02T01:24:47.250Z,4.00
2019-03-02T01:25:48.859Z,4.00
2019-03-02T01:26:47.280Z,4.00
2019-03-02T01:27:47.286Z,4.00
2019-03-02T01:28:47.294Z,4.00
2019-03-02T01:29:47.311Z,4.00
2019-03-02T01:30:47.318Z,4.00
2019-03-02T01:31:47.335Z,4.00
2019-03-02T01:32:48.726Z,4.00
2019-03-02T01:33:47.351Z,4.00
2019-03-02T01:34:47.359Z,4.00
2019-03-02T01:35:47.377Z,4.00
2019-03-02T01:36:47.384Z,4.00
2019-03-02T01:37:47.397Z,4.00
2019-03-02T01:38:50.580Z,4.00
2019-03-02T01:39:47.418Z,4.00
2019-03-02T01:40:47.431Z,4.00
2019-03-02T01:41:47.440Z,4.00
2019-03-02T01:42:47.459Z,4.00
2019-03-02T01:43:47.462Z,4.00
2019-03-02T01:44:48.783Z,4.00
2019-03-02T01:45:47.493Z,4.00
2019-03-02T01:46:47.535Z,4.00
2019-03-02T01:47:51.165Z,4.00
2019-03-02T01:48:47.517Z,4.00
2019-03-02T01:49:47.533Z,4.00
2019-03-02T01:50:48.684Z,4.00
2019-03-02T01:51:47.556Z,4.00
2019-03-02T01:52:47.560Z,4.00
2019-03-02T01:53:47.574Z,4.00
2019-03-02T01:54:47.592Z,4.00
2019-03-02T01:55:47.597Z,4.00
2019-03-02T01:56:47.615Z,4.00
2019-03-02T01:57:48.928Z,4.00
2019-03-02T01:58:47.630Z,4.00
2019-03-02T01:59:47.643Z,4.00
2019-03-02T02:00:49.166Z,4.00
2019-03-02T02:01:47.674Z,4.00
2019-03-02T02:02:47.684Z,4.00
2019-03-02T02:03:48.042Z,4.00
2019-03-02T02:04:47.706Z,4.00
2019-03-02T02:05:47.705Z,4.00
2019-03-02T02:06:47.717Z,4.00
2019-03-02T02:07:53.717Z,4.00
2019-03-02T02:08:47.743Z,4.00
2019-03-02T02:09:47.754Z,4.00
2019-03-02T02:10:47.771Z,4.00
2019-03-02T02:11:49.866Z,4.00
2019-03-02T02:12:47.784Z,4.00
2019-03-02T02:13:47.798Z,4.00
2019-03-02T02:14:50.927Z,4.00
2019-03-02T02:15:47.819Z,4.00
2019-03-02T02:16:47.838Z,4.00
2019-03-02T02:17:49.643Z,4.00
2019-03-02T02:18:47.859Z,4.00
2019-03-02T02:19:47.864Z,4.00
2019-03-02T02:20:50.281Z,4.00
2019-03-02T02:21:47.888Z,4.00
2019-03-02T02:22:47.905Z,4.00
2019-03-02T02:23:49.807Z,4.00
2019-03-02T02:24:47.924Z,4.00
2019-03-02T02:25:47.930Z,4.00
2019-03-02T02:26:47.942Z,4.00
2019-03-02T02:27:47.964Z,4.00
2019-03-02T02:28:47.970Z,4.00
2019-03-02T02:29:47.983Z,4.00
2019-03-02T02:30:48.002Z,4.00
2019-03-02T02:31:48.008Z,4.00
2019-03-02T02:32:48.013Z,4.00
2019-03-02T02:33:48.025Z,4.00
2019-03-02T02:34:48.032Z,4.00
2019-03-02T02:35:48.040Z,4.00
2019-03-02T02:36:48.052Z,4.00
2019-03-02T02:37:48.072Z,4.00
2019-03-02T02:38:53.975Z,4.00
2019-03-02T02:39:48.091Z,4.00
2019-03-02T02:40:48.093Z,4.00
2019-03-02T02:41:48.109Z,4.00
2019-03-02T02:42:48.124Z,4.00
2019-03-02T02:43:48.130Z,4.00
2019-03-02T02:44:48.150Z,4.00
2019-03-02T02:45:49.045Z,4.00
2019-03-02T02:46:48.162Z,4.00
2019-03-02T02:47:52.377Z,4.00
2019-03-02T02:48:48.184Z,4.00
2019-03-02T02:49:49.203Z,4.00
2019-03-02T02:50:48.240Z,4.00
2019-03-02T02:51:49.355Z,4.00
2019-03-02T02:52:48.289Z,4.00
2019-03-02T02:53:48.250Z,4.00
2019-03-02T02:54:48.277Z,4.00
2019-03-02T02:55:48.265Z,4.00
2019-03-02T02:56:48.283Z,4.00
2019-03-02T02:57:48.308Z,4.00
2019-03-02T02:58:55.343Z,4.00
2019-03-02T02:59:48.306Z,4.00
2019-03-02T03:00:50.134Z,4.00
2019-03-02T03:01:48.324Z,4.00
2019-03-02T03:02:48.338Z,4.00
2019-03-02T03:03:48.348Z,4.00
2019-03-02T03:04:48.362Z,4.00
2019-03-02T03:05:49.168Z,4.00
2019-03-02T03:06:48.380Z,4.00
2019-03-02T03:07:53.447Z,4.00
2019-03-02T03:08:48.412Z,4.00
2019-03-02T03:09:49.403Z,4.00
2019-03-02T03:10:48.432Z,4.00
2019-03-02T03:11:48.453Z,4.00
2019-03-02T03:12:48.449Z,4.00
2019-03-02T03:13:48.470Z,4.00
2019-03-02T03:14:48.472Z,4.00
2019-03-02T03:15:48.484Z,4.00
2019-03-02T03:16:49.535Z,4.00
2019-03-02T03:17:48.509Z,4.00
2019-03-02T03:18:52.468Z,4.00
2019-03-02T03:19:48.534Z,4.00
2019-03-02T03:20:50.432Z,4.00
2019-03-02T03:21:48.552Z,4.00
2019-03-02T03:22:48.558Z,4.00
2019-03-02T03:23:48.574Z,4.00
2019-03-02T03:24:48.589Z,4.00
2019-03-02T03:25:56.328Z,4.00
2019-03-02T03:26:48.606Z,4.00
2019-03-02T03:27:51.742Z,4.00
2019-03-02T03:28:48.629Z,4.00
2019-03-02T03:29:49.512Z,4.00
2019-03-02T03:30:48.649Z,4.00
2019-03-02T03:31:48.661Z,4.00
2019-03-02T03:32:55.892Z,4.00
2019-03-02T03:33:48.696Z,4.00
2019-03-02T03:34:48.720Z,4.00
2019-03-02T03:35:51.723Z,4.00
2019-03-02T03:36:48.723Z,4.00
2019-03-02T03:37:51.250Z,4.00
2019-03-02T03:38:48.738Z,4.00
2019-03-02T03:39:48.749Z,4.00
2019-03-02T03:40:48.766Z,4.00
2019-03-02T03:41:48.777Z,4.00
2019-03-02T03:42:48.780Z,4.00
2019-03-02T03:43:48.789Z,4.00
2019-03-02T03:44:48.803Z,4.00
2019-03-02T03:45:48.818Z,4.00
2019-03-02T03:46:48.824Z,4.00
2019-03-02T03:47:48.863Z,4.00
2019-03-02T03:48:51.533Z,4.00
2019-03-02T03:49:48.866Z,4.00
2019-03-02T03:50:52.579Z,4.00
2019-03-02T03:51:48.881Z,4.00
2019-03-02T03:52:50.411Z,4.00
2019-03-02T03:53:48.904Z,4.00
2019-03-02T03:54:48.912Z,4.00
2019-03-02T03:55:48.926Z,4.00
2019-03-02T03:56:48.959Z,4.00
2019-03-02T03:57:48.954Z,4.00
2019-03-02T03:58:48.960Z,4.00
2019-03-02T03:59:53.370Z,4.00
2019-03-02T04:00:48.981Z,4.00
2019-03-02T04:01:52.062Z,4.00
2019-03-02T04:02:49.005Z,4.00
2019-03-02T04:03:51.806Z,4.00
2019-03-02T04:04:49.023Z,4.00
2019-03-02T04:05:49.050Z,4.00
2019-03-02T04:06:49.055Z,4.00
2019-03-02T04:07:51.488Z,4.00
2019-03-02T04:08:49.069Z,4.00
2019-03-02T04:09:49.108Z,4.00
2019-03-02T04:10:49.095Z,4.00
2019-03-02T04:11:49.105Z,4.00
2019-03-02T04:12:49.115Z,4.00
2019-03-02T04:13:49.124Z,4.00
2019-03-02T04:14:49.135Z,4.00
2019-03-02T04:15:49.147Z,4.00
2019-03-02T04:16:49.172Z,4.00
2019-03-02T04:17:49.191Z,4.00
2019-03-02T04:18:50.237Z,4.00
2019-03-02T04:19:49.193Z,4.00
2019-03-02T04:20:49.718Z,4.00
2019-03-02T04:21:49.213Z,4.00
2019-03-02T04:22:49.227Z,4.00
2019-03-02T04:23:49.238Z,4.00
2019-03-02T04:24:49.254Z,4.00
2019-03-02T04:25:52.144Z,4.00
2019-03-02T04:26:49.274Z,4.00
2019-03-02T04:27:54.220Z,4.00
2019-03-02T04:28:49.288Z,4.00
2019-03-02T04:29:51.340Z,4.00
2019-03-02T04:30:49.318Z,4.00
2019-03-02T04:31:50.449Z,4.00
2019-03-02T04:32:49.340Z,4.00
2019-03-02T04:33:49.346Z,4.00
2019-03-02T04:34:49.356Z,4.00
2019-03-02T04:35:49.374Z,4.00
2019-03-02T04:36:49.377Z,4.00
2019-03-02T04:37:49.387Z,4.00
2019-03-02T04:38:49.402Z,4.00
2019-03-02T04:39:50.006Z,4.00
2019-03-02T04:40:49.423Z,4.00
2019-03-02T04:41:49.439Z,4.00
2019-03-02T04:42:50.205Z,4.00
2019-03-02T04:43:50.773Z,4.00
2019-03-02T04:44:49.464Z,4.00
2019-03-02T04:45:49.480Z,4.00
2019-03-02T04:46:51.495Z,4.00
2019-03-02T04:47:49.497Z,4.00
2019-03-02T04:48:49.511Z,4.00
2019-03-02T04:49:51.370Z,4.00
2019-03-02T04:50:49.533Z,4.00
2019-03-02T04:51:49.541Z,4.00
2019-03-02T04:52:49.931Z,4.00
2019-03-02T04:53:49.585Z,4.00
2019-03-02T04:54:49.577Z,4.00
2019-03-02T04:55:49.595Z,4.00
2019-03-02T04:56:49.598Z,4.00
2019-03-02T04:57:49.610Z,4.00
2019-03-02T04:58:49.629Z,4.00
2019-03-02T04:59:49.672Z,4.00
2019-03-02T05:00:49.649Z,4.00
2019-03-02T05:01:49.656Z,4.00
2019-03-02T05:02:51.640Z,4.00
2019-03-02T05:03:49.675Z,4.00
2019-03-02T05:04:49.692Z,4.00
2019-03-02T05:05:49.697Z,4.00
2019-03-02T05:06:50.618Z,4.00
2019-03-02T05:07:49.717Z,4.00
2019-03-02T05:08:49.732Z,4.00
2019-03-02T05:09:52.123Z,4.00
2019-03-02T05:10:49.757Z,4.00
2019-03-02T05:11:49.763Z,4.00
2019-03-02T05:12:52.967Z,4.00
2019-03-02T05:13:49.801Z,4.00
2019-03-02T05:14:49.795Z,4.00
2019-03-02T05:15:52.308Z,4.00
2019-03-02T05:16:49.817Z,4.00
2019-03-02T05:17:49.821Z,4.00
2019-03-02T05:18:53.259Z,4.00
2019-03-02T05:19:49.845Z,4.00
2019-03-02T05:20:49.860Z,4.00
2019-03-02T05:21:49.869Z,4.00
2019-03-02T05:22:50.731Z,4.00
2019-03-02T05:23:49.890Z,4.00
2019-03-02T05:24:49.902Z,4.00
2019-03-02T05:25:51.622Z,4.00
2019-03-02T05:26:49.936Z,4.00
2019-03-02T05:27:49.938Z,4.00
2019-03-02T05:28:49.947Z,4.00
2019-03-02T05:29:50.841Z,4.00
2019-03-02T05:30:49.968Z,4.00
2019-03-02T05:31:49.983Z,4.00
2019-03-02T05:32:51.260Z,4.00
2019-03-02T05:33:50.010Z,4.00
2019-03-02T05:34:50.019Z,4.00
2019-03-02T05:35:50.851Z,4.00
2019-03-02T05:36:50.034Z,4.00
2019-03-02T05:37:50.050Z,4.00
2019-03-02T05:38:50.057Z,4.00
2019-03-02T05:39:52.896Z,4.00
2019-03-02T05:40:50.081Z,4.00
2019-03-02T05:41:50.091Z,4.00
2019-03-02T05:42:52.514Z,4.00
2019-03-02T05:43:50.113Z,4.00
2019-03-02T05:44:50.126Z,4.00
2019-03-02T05:45:50.140Z,4.00
2019-03-02T05:46:50.145Z,4.00
2019-03-02T05:47:50.152Z,4.00
2019-03-02T05:48:50.169Z,4.00
2019-03-02T05:49:50.937Z,4.00
2019-03-02T05:50:50.190Z,0.00
2019-03-02T05:51:50.198Z,0.00
2019-03-02T05:52:50.888Z,4.00
2019-03-02T05:53:50.228Z,4.00
2019-03-02T05:54:50.235Z,4.00
2019-03-02T05:55:53.759Z,4.00
2019-03-02T05:56:50.256Z,4.00
2019-03-02T05:57:50.269Z,4.00
2019-03-02T05:58:51.136Z,4.00
2019-03-02T05:59:50.296Z,8.00
2019-03-02T06:00:50.331Z,4.00
2019-03-02T06:01:50.314Z,8.00
2019-03-02T06:02:50.334Z,8.00
2019-03-02T06:03:50.332Z,8.00
2019-03-02T06:04:53.646Z,8.00
2019-03-02T06:05:50.357Z,8.00
2019-03-02T06:06:50.765Z,8.00
2019-03-02T06:07:53.829Z,8.00
2019-03-02T06:08:50.391Z,8.00
2019-03-02T06:09:51.083Z,12.00
2019-03-02T06:10:50.417Z,8.00
2019-03-02T06:11:50.423Z,12.00
2019-03-02T06:12:51.605Z,16.00
2019-03-02T06:13:50.446Z,12.00
2019-03-02T06:14:50.456Z,16.00
2019-03-02T06:15:50.464Z,16.00
2019-03-02T06:16:53.822Z,20.00
2019-03-02T06:17:50.489Z,20.00
2019-03-02T06:18:50.500Z,20.00
2019-03-02T06:19:50.512Z,20.00
2019-03-02T06:20:50.524Z,24.00
2019-03-02T06:21:50.541Z,24.00
2019-03-02T06:22:52.339Z,24.00
2019-03-02T06:23:50.556Z,28.00
2019-03-02T06:24:50.582Z,24.00
2019-03-02T06:25:55.123Z,28.00
2019-03-02T06:26:50.605Z,32.00
2019-03-02T06:27:50.600Z,32.00
2019-03-02T06:28:50.619Z,32.00
2019-03-02T06:29:50.632Z,36.00
2019-03-02T06:30:50.637Z,36.00
2019-03-02T06:31:53.796Z,36.00
2019-03-02T06:32:50.657Z,40.00
2019-03-02T06:33:50.668Z,44.00
2019-03-02T06:34:51.847Z,44.00
2019-03-02T06:35:50.687Z,44.00
2019-03-02T06:36:50.704Z,44.00
2019-03-02T06:37:52.949Z,48.00
2019-03-02T06:38:50.723Z,56.00
2019-03-02T06:39:50.736Z,56.00
2019-03-02T06:40:50.751Z,56.00
2019-03-02T06:41:50.765Z,60.00
2019-03-02T06:42:50.779Z,60.00
2019-03-02T06:43:50.773Z,64.00
2019-03-02T06:44:50.789Z,64.00
2019-03-02T06:45:50.806Z,68.00
2019-03-02T06:46:50.810Z,68.00
2019-03-02T06:47:50.823Z,72.00
2019-03-02T06:48:50.831Z,76.00
2019-03-02T06:49:53.237Z,76.00
2019-03-02T06:50:50.856Z,80.00
2019-03-02T06:51:50.863Z,84.00
2019-03-02T06:52:50.887Z,84.00
2019-03-02T06:53:50.891Z,88.00
2019-03-02T06:54:50.896Z,92.00
2019-03-02T06:55:50.909Z,96.00
2019-03-02T06:56:57.496Z,100.00
2019-03-02T06:57:51.656Z,112.00
2019-03-02T06:58:50.941Z,148.00
2019-03-02T06:59:50.954Z,220.00
2019-03-02T07:00:50.964Z,284.00
2019-03-02T07:01:50.997Z,328.00
2019-03-02T07:02:50.993Z,372.00
2019-03-02T07:03:50.998Z,408.00
2019-03-02T07:04:51.019Z,460.00
2019-03-02T07:05:51.021Z,504.00
2019-03-02T07:06:51.033Z,520.00
2019-03-02T07:07:53.741Z,528.00
2019-03-02T07:08:51.059Z,528.00
2019-03-02T07:09:51.070Z,544.00
2019-03-02T07:10:54.337Z,536.00
2019-03-02T07:11:51.107Z,544.00
2019-03-02T07:12:51.097Z,548.00
2019-03-02T07:13:53.562Z,552.00
2019-03-02T07:14:51.933Z,540.00
2019-03-02T07:15:51.129Z,536.00
2019-03-02T07:16:52.184Z,560.00
2019-03-02T07:17:51.154Z,616.00
2019-03-02T07:18:51.170Z,652.00
2019-03-02T07:20:51.189Z,680.00
2019-03-02T07:21:51.196Z,712.00
2019-03-02T07:22:52.465Z,732.00
2019-03-02T07:23:51.222Z,768.00
2019-03-02T07:24:51.545Z,780.00
2019-03-02T07:25:51.247Z,776.00
2019-03-02T07:26:51.603Z,780.00
2019-03-02T07:27:51.264Z,784.00
2019-03-02T07:28:51.279Z,792.00
2019-03-02T07:29:53.629Z,832.00
2019-03-02T07:30:51.299Z,856.00
2019-03-02T07:31:51.313Z,868.00
2019-03-02T07:32:51.320Z,880.00
2019-03-02T07:33:51.340Z,900.00
2019-03-02T07:34:51.349Z,904.00
2019-03-02T07:35:51.663Z,904.00
2019-03-02T07:36:51.369Z,888.00
2019-03-02T07:37:51.380Z,856.00
2019-03-02T07:38:53.047Z,820.00
2019-03-02T07:39:51.401Z,796.00
2019-03-02T07:40:51.419Z,780.00
2019-03-02T07:41:54.303Z,776.00
2019-03-02T07:42:51.441Z,792.00
2019-03-02T07:43:51.449Z,820.00
2019-03-02T07:44:55.024Z,832.00
2019-03-02T07:45:51.505Z,840.00
2019-03-02T07:46:51.481Z,852.00
2019-03-02T07:47:51.493Z,868.00
2019-03-02T07:48:51.512Z,892.00
2019-03-02T07:49:51.513Z,912.00
2019-03-02T07:50:51.574Z,940.00
2019-03-02T07:51:51.538Z,956.00
2019-03-02T07:52:52.992Z,968.00
2019-03-02T07:53:51.560Z,980.00
2019-03-02T07:54:58.122Z,996.00
2019-03-02T07:55:53.611Z,1008.00
2019-03-02T07:56:51.601Z,1016.00
2019-03-02T07:57:51.614Z,1040.00
2019-03-02T07:58:51.854Z,1068.00
2019-03-02T07:59:51.634Z,1084.00
2019-03-02T08:00:51.645Z,1084.00
2019-03-02T08:01:52.631Z,1084.00
2019-03-02T08:02:51.661Z,1108.00
2019-03-02T08:03:51.674Z,1136.00
2019-03-02T08:04:51.692Z,1144.00
2019-03-02T08:05:51.987Z,1148.00
2019-03-02T08:06:51.719Z,1172.00
2019-03-02T08:07:51.733Z,1204.00
2019-03-02T08:08:51.736Z,1220.00
2019-03-02T08:09:51.755Z,1212.00
2019-03-02T08:10:51.756Z,1212.00
2019-03-02T08:11:51.774Z,1196.00
2019-03-02T08:12:51.794Z,1168.00
2019-03-02T08:13:51.799Z,1152.00
2019-03-02T08:14:51.802Z,1132.00
2019-03-02T08:15:51.827Z,1132.00
2019-03-02T08:16:51.827Z,1156.00
2019-03-02T08:17:51.841Z,1192.00
2019-03-02T08:18:51.866Z,1216.00
2019-03-02T08:19:51.866Z,1236.00
2019-03-02T08:20:53.792Z,1252.00
2019-03-02T08:21:51.894Z,1268.00
2019-03-02T08:22:51.909Z,1284.00
2019-03-02T08:23:51.915Z,1308.00
2019-03-02T08:24:51.924Z,1320.00
2019-03-02T08:25:51.936Z,1308.00
2019-03-02T08:26:51.951Z,1300.00
2019-03-02T08:27:51.965Z,1312.00
2019-03-02T08:28:51.980Z,1312.00
2019-03-02T08:29:53.881Z,1308.00
2019-03-02T08:30:51.999Z,1316.00
2019-03-02T08:31:52.002Z,1344.00
2019-03-02T08:32:53.963Z,1344.00
2019-03-02T08:33:52.038Z,1316.00
2019-03-02T08:34:52.043Z,1276.00
2019-03-02T08:35:52.054Z,1216.00
2019-03-02T08:36:54.238Z,1168.00
2019-03-02T08:37:52.077Z,1152.00
2019-03-02T08:38:52.088Z,1128.00
2019-03-02T08:39:52.097Z,1104.00
2019-03-02T08:40:52.116Z,1096.00
2019-03-02T08:41:53.058Z,1104.00
2019-03-02T08:42:52.134Z,1092.00
2019-03-02T08:43:52.142Z,1072.00
2019-03-02T08:44:54.052Z,1024.00
2019-03-02T08:45:52.179Z,992.00
2019-03-02T08:46:52.198Z,1004.00
2019-03-02T08:47:52.207Z,1024.00
2019-03-02T08:48:52.205Z,1016.00
2019-03-02T08:49:52.219Z,976.00
2019-03-02T08:50:53.043Z,936.00
2019-03-02T08:51:52.246Z,912.00
2019-03-02T08:52:52.256Z,868.00
2019-03-02T08:53:52.265Z,852.00
2019-03-02T08:54:53.630Z,812.00
2019-03-02T08:55:52.305Z,808.00
2019-03-02T08:56:52.312Z,848.00
2019-03-02T08:57:53.812Z,864.00
2019-03-02T08:58:52.331Z,880.00
2019-03-02T08:59:52.356Z,872.00
2019-03-02T09:00:52.366Z,860.00
2019-03-02T09:01:54.891Z,864.00
2019-03-02T09:02:55.138Z,840.00
2019-03-02T09:03:53.539Z,828.00
2019-03-02T09:04:52.400Z,804.00
2019-03-02T09:05:52.405Z,792.00
2019-03-02T09:06:52.428Z,788.00
2019-03-02T09:07:52.435Z,808.00
2019-03-02T09:08:52.441Z,840.00
2019-03-02T09:09:52.457Z,892.00
2019-03-02T09:10:52.467Z,920.00
2019-03-02T09:11:52.516Z,960.00
2019-03-02T09:12:57.960Z,988.00
2019-03-02T09:13:52.507Z,1012.00
2019-03-02T09:14:52.553Z,1052.00
2019-03-02T09:15:52.536Z,1036.00
2019-03-02T09:16:52.533Z,1040.00
2019-03-02T09:17:54.233Z,1048.00
2019-03-02T09:18:52.558Z,1052.00
2019-03-02T09:19:55.773Z,1032.00
2019-03-02T09:20:52.585Z,1052.00
2019-03-02T09:21:52.604Z,1052.00
2019-03-02T09:22:56.558Z,1040.00
2019-03-02T09:23:52.631Z,1004.00
2019-03-02T09:24:52.644Z,984.00
2019-03-02T09:25:52.647Z,960.00
2019-03-02T09:26:52.672Z,944.00
2019-03-02T09:27:52.669Z,932.00
2019-03-02T09:28:56.140Z,952.00
2019-03-02T09:29:55.802Z,968.00
2019-03-02T09:30:52.703Z,964.00
2019-03-02T09:31:52.740Z,956.00
2019-03-02T09:32:52.752Z,960.00
2019-03-02T09:33:52.746Z,968.00
2019-03-02T09:34:52.753Z,992.00
2019-03-02T09:35:54.791Z,1020.00
2019-03-02T09:36:52.770Z,1052.00
2019-03-02T09:37:52.806Z,1048.00
2019-03-02T09:38:54.171Z,1020.00
2019-03-02T09:39:52.815Z,1044.00
2019-03-02T09:40:52.833Z,1080.00
2019-03-02T09:41:52.830Z,1120.00
2019-03-02T09:42:52.849Z,1112.00
2019-03-02T09:43:55.283Z,1092.00
2019-03-02T09:44:52.876Z,1068.00
2019-03-02T09:45:52.880Z,1032.00
2019-03-02T09:46:52.900Z,1020.00
2019-03-02T09:47:52.913Z,1036.00
2019-03-02T09:48:52.922Z,1052.00
2019-03-02T09:49:52.927Z,1124.00
2019-03-02T09:50:52.982Z,1164.00
2019-03-02T09:51:53.013Z,1152.00
2019-03-02T09:52:52.977Z,1156.00
2019-03-02T09:53:52.975Z,1124.00
2019-03-02T09:54:53.003Z,1088.00
2019-03-02T09:55:56.490Z,1084.00
2019-03-02T09:56:53.010Z,1084.00
2019-03-02T09:57:53.027Z,1068.00
2019-03-02T09:58:53.034Z,1096.00
2019-03-02T09:59:53.050Z,1112.00
2019-03-02T10:00:53.080Z,1100.00
2019-03-02T10:01:53.335Z,1144.00
2019-03-02T10:02:53.119Z,1160.00
2019-03-02T10:03:53.100Z,1120.00
2019-03-02T10:04:53.112Z,1072.00
2019-03-02T10:05:53.122Z,1068.00
2019-03-02T10:06:53.144Z,1068.00
2019-03-02T10:07:53.146Z,1044.00
2019-03-02T10:08:53.156Z,1048.00
2019-03-02T10:09:53.179Z,1084.00
2019-03-02T10:10:53.194Z,1096.00
2019-03-02T10:11:53.201Z,1060.00
2019-03-02T10:12:53.434Z,1060.00
2019-03-02T10:13:53.639Z,1052.00
2019-03-02T10:14:53.227Z,1072.00
2019-03-02T10:15:53.240Z,1132.00
2019-03-02T10:16:53.255Z,1172.00
2019-03-02T10:17:53.265Z,1184.00
2019-03-02T10:18:53.284Z,1184.00
2019-03-02T10:19:53.314Z,1196.00
2019-03-02T10:20:55.339Z,1192.00
2019-03-02T10:21:53.317Z,1196.00
2019-03-02T10:22:53.416Z,1196.00
2019-03-02T10:23:53.343Z,1188.00
2019-03-02T10:24:54.166Z,1204.00
2019-03-02T10:25:53.398Z,1240.00
2019-03-02T10:26:53.377Z,1268.00
2019-03-02T10:27:53.819Z,1264.00
2019-03-02T10:28:53.403Z,1248.00
2019-03-02T10:29:53.410Z,1248.00
2019-03-02T10:30:53.423Z,1228.00
2019-03-02T10:31:53.436Z,1212.00
2019-03-02T10:32:55.652Z,1204.00
2019-03-02T10:33:53.464Z,1204.00
2019-03-02T10:34:53.472Z,1192.00
2019-03-02T10:35:54.139Z,1164.00
2019-03-02T10:36:53.513Z,1128.00
2019-03-02T10:37:53.507Z,1104.00
2019-03-02T10:38:55.742Z,1092.00
2019-03-02T10:39:53.536Z,1060.00
2019-03-02T10:40:53.583Z,1028.00
2019-03-02T10:41:56.703Z,1004.00
2019-03-02T10:42:53.592Z,980.00
2019-03-02T10:43:53.591Z,972.00
2019-03-02T10:44:56.770Z,980.00
2019-03-02T10:45:53.623Z,984.00
2019-03-02T10:46:53.633Z,964.00
2019-03-02T10:47:54.195Z,944.00
2019-03-02T10:48:53.636Z,936.00
2019-03-02T10:49:53.651Z,928.00
2019-03-02T10:50:55.915Z,932.00
2019-03-02T10:51:53.675Z,944.00
2019-03-02T10:52:53.753Z,948.00
2019-03-02T10:53:55.869Z,956.00
2019-03-02T10:54:55.595Z,1020.00
2019-03-02T10:55:53.756Z,1092.00
2019-03-02T10:56:56.633Z,1156.00
2019-03-02T10:57:53.756Z,1184.00
2019-03-02T10:58:53.768Z,1204.00
2019-03-02T10:59:53.774Z,1264.00
2019-03-02T11:00:53.787Z,1364.00
2019-03-02T11:01:53.797Z,1460.00
2019-03-02T11:02:56.017Z,1540.00
2019-03-02T11:03:53.827Z,1624.00
2019-03-02T11:04:53.842Z,1696.00
2019-03-02T11:05:56.918Z,1748.00
2019-03-02T11:06:53.867Z,1796.00
2019-03-02T11:07:53.886Z,1804.00
2019-03-02T11:08:53.886Z,1820.00
2019-03-02T11:09:53.904Z,1860.00
2019-03-02T11:10:53.905Z,1896.00
2019-03-02T11:11:53.916Z,1920.00
2019-03-02T11:12:53.929Z,1920.00
2019-03-02T11:13:55.283Z,1892.00
2019-03-02T11:14:53.954Z,1828.00
2019-03-02T11:15:53.967Z,1772.00
2019-03-02T11:16:53.975Z,1756.00
2019-03-02T11:17:55.681Z,1740.00
2019-03-02T11:18:54.002Z,1720.00
2019-03-02T11:19:54.098Z,1700.00
2019-03-02T11:20:55.729Z,1696.00
2019-03-02T11:21:54.066Z,1704.00
2019-03-02T11:22:54.050Z,1708.00
2019-03-02T11:23:54.703Z,1728.00
2019-03-02T11:24:54.078Z,1724.00
2019-03-02T11:25:54.085Z,1700.00
2019-03-02T11:26:54.097Z,1676.00
2019-03-02T11:27:54.788Z,1648.00
2019-03-02T11:28:54.144Z,1628.00
2019-03-02T11:29:54.138Z,1612.00
2019-03-02T11:30:54.147Z,1616.00
2019-03-02T11:31:54.535Z,1644.00
2019-03-02T11:32:56.076Z,1700.00
2019-03-02T11:33:54.184Z,1764.00
2019-03-02T11:34:54.205Z,1780.00
2019-03-02T11:35:54.209Z,1776.00
2019-03-02T11:36:54.247Z,1720.00
2019-03-02T11:37:54.251Z,1652.00
2019-03-02T11:38:56.544Z,1592.00
2019-03-02T11:39:54.317Z,1564.00
2019-03-02T11:40:54.276Z,1560.00
2019-03-02T11:41:54.290Z,1544.00
2019-03-02T11:42:54.298Z,1536.00
2019-03-02T11:43:54.317Z,1520.00
2019-03-02T11:44:54.334Z,1516.00
2019-03-02T11:45:54.341Z,1488.00
2019-03-02T11:46:54.352Z,1460.00
2019-03-02T11:47:54.365Z,1452.00
2019-03-02T11:48:56.963Z,1472.00
2019-03-02T11:49:54.423Z,1484.00
2019-03-02T11:50:54.398Z,1464.00
2019-03-02T11:51:54.468Z,1428.00
2019-03-02T11:52:54.435Z,1360.00
2019-03-02T11:53:54.450Z,1300.00
2019-03-02T11:54:54.454Z,1260.00
2019-03-02T11:55:54.460Z,1224.00
2019-03-02T11:56:54.486Z,1184.00
2019-03-02T11:57:57.103Z,1148.00
2019-03-02T11:58:54.501Z,1112.00
2019-03-02T11:59:54.519Z,1100.00
2019-03-02T12:00:57.920Z,1068.00
2019-03-02T12:01:54.548Z,1072.00
2019-03-02T12:02:58.285Z,1064.00
2019-03-02T12:03:54.603Z,1040.00
2019-03-02T12:04:54.578Z,1020.00
2019-03-02T12:05:54.587Z,1000.00
2019-03-02T12:06:54.617Z,992.00
2019-03-02T12:07:54.619Z,1008.00
2019-03-02T12:08:54.829Z,1028.00
2019-03-02T12:09:54.640Z,1048.00
2019-03-02T12:10:54.654Z,1064.00
2019-03-02T12:11:54.664Z,1072.00
2019-03-02T12:12:55.568Z,1080.00
2019-03-02T12:13:54.691Z,1088.00
2019-03-02T12:14:54.698Z,1120.00
2019-03-02T12:15:54.713Z,1176.00
2019-03-02T12:16:54.738Z,1260.00
2019-03-02T12:17:55.502Z,1364.00
2019-03-02T12:18:55.052Z,1468.00
2019-03-02T12:19:54.769Z,1584.00
2019-03-02T12:20:54.792Z,1696.00
2019-03-02T12:21:57.763Z,1816.00
2019-03-02T12:22:54.799Z,1932.00
2019-03-02T12:23:54.813Z,2036.00
2019-03-02T12:24:58.322Z,2112.00
2019-03-02T12:25:54.838Z,2212.00
2019-03-02T12:26:54.853Z,2316.00
2019-03-02T12:27:58.667Z,2412.00
2019-03-02T12:28:54.877Z,2460.00
2019-03-02T12:29:54.891Z,2492.00
2019-03-02T12:30:54.900Z,2524.00
2019-03-02T12:31:54.915Z,2612.00
2019-03-02T12:32:54.932Z,2808.00
2019-03-02T12:33:57.652Z,3264.00
2019-03-02T12:34:54.954Z,3748.00
2019-03-02T12:35:54.966Z,4108.00
2019-03-02T12:36:54.982Z,4304.00
2019-03-02T12:37:55.043Z,4420.00
2019-03-02T12:38:55.051Z,4512.00
2019-03-02T12:39:56.717Z,4500.00
2019-03-02T12:40:55.035Z,4500.00
2019-03-02T12:41:55.057Z,4584.00
2019-03-02T12:42:55.057Z,4600.00
2019-03-02T12:43:55.082Z,4732.00
2019-03-02T12:44:57.882Z,4772.00
2019-03-02T12:45:55.098Z,4812.00
2019-03-02T12:46:59.130Z,4748.00